Time;durP1;ratioP1;P1;durP2;ratioP2;P2;SDS_P1;SDS_P2;PMS_P1;PMS_P2;Temp;Humidity;BMP_temperature;BMP_pressure;BME280_temperature;BME280_humidity;BME280_pressure;Samples;Min_cycle;Max_cycle;Signal;HPM_P1;HPM_P2
2021/07/24 00:02:22;;;;;;;6.22;3.97;;;22.40;59.00;;;;;;5032719;28;20084;-61
2021/07/24 00:04:48;;;;;;;6.88;4.13;;;22.40;59.80;;;;;;5032879;28;20033;-61
2021/07/24 00:07:14;;;;;;;6.40;4.45;;;22.40;59.20;;;;;;5032953;28;20068;-61
2021/07/24 00:09:39;;;;;;;7.15;4.55;;;22.40;59.40;;;;;;5027806;28;20049;-61
2021/07/24 00:12:06;;;;;;;9.23;4.25;;;22.40;59.20;;;;;;5027017;28;20107;-61
2021/07/24 00:14:31;;;;;;;4.57;3.97;;;22.40;59.40;;;;;;5032201;28;20111;-61
2021/07/24 00:16:57;;;;;;;5.85;3.92;;;22.40;59.40;;;;;;5033236;28;20072;-61
2021/07/24 00:19:23;;;;;;;5.63;4.50;;;22.40;59.30;;;;;;5031683;28;20151;-61
2021/07/24 00:21:48;;;;;;;7.50;4.30;;;22.30;59.30;;;;;;5036696;28;20142;-62
2021/07/24 00:24:14;;;;;;;5.15;4.13;;;22.30;59.50;;;;;;5036714;28;20025;-62
2021/07/24 00:26:40;;;;;;;6.53;3.90;;;22.30;59.60;;;;;;5030440;28;20022;-62
2021/07/24 00:29:06;;;;;;;5.13;3.70;;;22.30;59.70;;;;;;5036585;28;20065;-62
2021/07/24 00:31:33;;;;;;;5.65;4.03;;;22.30;59.70;;;;;;5036555;28;20022;-62
2021/07/24 00:33:59;;;;;;;6.43;4.75;;;22.30;59.80;;;;;;5035478;28;20044;-62
2021/07/24 00:36:24;;;;;;;5.80;4.35;;;22.30;59.90;;;;;;5036323;28;20029;-62
2021/07/24 00:38:50;;;;;;;6.97;4.32;;;22.30;59.90;;;;;;5034313;28;20032;-62
2021/07/24 00:41:38;;;;;;;5.75;3.95;;;22.30;60.00;;;;;;5032893;28;20432;-62
2021/07/24 00:44:07;;;;;;;5.78;3.80;;;22.30;60.00;;;;;;5036152;28;20128;-62
2021/07/24 00:46:35;;;;;;;6.78;4.13;;;22.20;60.00;;;;;;5035959;28;20029;-62
2021/07/24 00:49:02;;;;;;;5.65;4.00;;;22.20;60.00;;;;;;5035953;28;20448;-62
2021/07/24 00:51:31;;;;;;;5.18;3.60;;;22.20;60.00;;;;;;5035349;28;20033;-62
2021/07/24 00:53:58;;;;;;;4.93;3.45;;;22.20;60.00;;;;;;5034708;28;20060;-62
2021/07/24 00:56:25;;;;;;;5.88;3.92;;;22.20;59.90;;;;;;5035398;28;20517;-62
2021/07/24 00:58:51;;;;;;;5.70;4.63;;;22.20;60.10;;;;;;5035821;28;20049;-62
2021/07/24 01:01:17;;;;;;;5.00;3.90;;;22.10;60.10;;;;;;5035499;28;20076;-62
2021/07/24 01:03:42;;;;;;;6.22;3.90;;;22.10;60.20;;;;;;5036005;28;20025;-62
2021/07/24 01:06:08;;;;;;;8.75;4.93;;;22.10;60.20;;;;;;5034939;28;20061;-62
2021/07/24 01:08:36;;;;;;;5.43;4.25;;;22.10;60.30;;;;;;5033684;28;20029;-62
2021/07/24 01:11:04;;;;;;;5.07;4.35;;;22.00;60.50;;;;;;5032292;28;20434;-62
2021/07/24 01:13:30;;;;;;;6.30;4.70;;;22.00;60.50;;;;;;5034167;28;20030;-61
2021/07/24 01:15:56;;;;;;;7.78;4.65;;;22.00;60.50;;;;;;5035801;28;20036;-61
2021/07/24 01:18:22;;;;;;;7.30;4.38;;;22.00;60.80;;;;;;5034428;28;20481;-61
2021/07/24 01:20:53;;;;;;;5.20;4.22;;;22.00;60.80;;;;;;5034745;28;20053;-61
2021/07/24 01:23:20;;;;;;;6.63;4.70;;;22.00;60.90;;;;;;5035747;28;20382;-61
2021/07/24 01:25:50;;;;;;;6.70;4.45;;;22.00;61.10;;;;;;5035469;28;20032;-61
2021/07/24 01:28:30;;;;;;;7.75;4.28;;;21.90;61.00;;;;;;5034932;28;20033;-61
2021/07/24 01:30:57;;;;;;;8.80;4.80;;;21.90;61.00;;;;;;5015058;28;20038;-61
2021/07/24 01:33:23;;;;;;;6.43;4.93;;;21.90;61.30;;;;;;5030799;28;20032;-61
2021/07/24 01:35:50;;;;;;;7.22;4.30;;;21.80;61.30;;;;;;5034528;28;20013;-61
2021/07/24 01:38:17;;;;;;;6.60;4.28;;;21.80;61.60;;;;;;5034600;28;20057;-61
2021/07/24 01:40:43;;;;;;;5.40;4.13;;;21.80;61.60;;;;;;5034396;28;20355;-61
2021/07/24 01:43:09;;;;;;;5.57;4.50;;;21.80;61.70;;;;;;5035040;28;20104;-61
2021/07/24 01:45:36;;;;;;;10.45;4.32;;;21.80;61.70;;;;;;5035016;28;20037;-61
2021/07/24 01:48:04;;;;;;;7.82;4.60;;;21.80;61.90;;;;;;5034894;28;20029;-61
2021/07/24 01:53:15;;;;;;;7.20;4.30;;;21.70;62.10;;;;;;5034940;28;20037;-61
2021/07/24 01:55:53;;;;;;;5.75;4.95;;;21.70;62.30;;;;;;5034373;28;20053;-61
2021/07/24 01:58:32;;;;;;;6.80;4.68;;;21.70;62.40;;;;;;5033521;28;20079;-61
2021/07/24 02:01:00;;;;;;;7.28;4.65;;;21.70;62.50;;;;;;5033631;28;20029;-61
2021/07/24 02:03:36;;;;;;;6.03;4.30;;;21.60;62.60;;;;;;5034740;28;20069;-61
2021/07/24 02:06:03;;;;;;;7.20;4.30;;;21.60;62.80;;;;;;5034139;28;20388;-61
2021/07/24 02:08:29;;;;;;;5.18;4.55;;;21.60;62.90;;;;;;5027321;28;20180;-61
2021/07/24 02:10:55;;;;;;;7.40;4.72;;;21.60;62.90;;;;;;5028250;28;20056;-61
2021/07/24 02:13:21;;;;;;;6.63;4.53;;;21.50;63.10;;;;;;5031908;28;20025;-61
2021/07/24 02:15:47;;;;;;;6.03;4.63;;;21.60;63.30;;;;;;5032775;28;20477;-61
2021/07/24 02:18:18;;;;;;;7.43;4.55;;;21.50;63.40;;;;;;5032775;28;20063;-61
2021/07/24 02:20:45;;;;;;;6.03;4.30;;;21.50;63.40;;;;;;5033963;28;20493;-61
2021/07/24 02:23:11;;;;;;;5.57;4.20;;;21.50;63.60;;;;;;5032554;28;20108;-61
2021/07/24 02:25:37;;;;;;;6.50;4.55;;;21.50;63.60;;;;;;5032551;28;20174;-61
2021/07/24 02:28:02;;;;;;;5.03;4.35;;;21.50;63.80;;;;;;5034141;28;20108;-61
2021/07/24 02:30:28;;;;;;;5.82;4.55;;;21.50;64.00;;;;;;5034234;28;20383;-61
2021/07/24 02:32:54;;;;;;;5.55;4.40;;;21.50;64.10;;;;;;5033821;28;20028;-61
2021/07/24 02:35:19;;;;;;;4.78;3.72;;;21.50;64.30;;;;;;5033867;28;20017;-61
2021/07/24 02:37:45;;;;;;;5.00;4.28;;;21.50;64.30;;;;;;5032020;28;20104;-61
2021/07/24 02:40:11;;;;;;;5.55;4.43;;;21.50;64.40;;;;;;5024794;28;20543;-61
2021/07/24 02:42:37;;;;;;;5.95;5.10;;;21.50;64.60;;;;;;5032549;28;20041;-61
2021/07/24 02:45:04;;;;;;;4.80;4.05;;;21.50;64.70;;;;;;5032582;28;20100;-61
2021/07/24 02:47:29;;;;;;;7.97;4.50;;;21.50;64.80;;;;;;5033720;28;20041;-61
2021/07/24 02:49:55;;;;;;;5.20;4.07;;;21.50;64.90;;;;;;5034125;28;20437;-61
2021/07/24 02:52:21;;;;;;;5.30;4.68;;;21.50;65.00;;;;;;5033548;28;20028;-61
2021/07/24 02:54:47;;;;;;;8.25;4.55;;;21.50;65.20;;;;;;5032646;28;20049;-61
2021/07/24 02:57:12;;;;;;;7.55;4.80;;;21.60;65.20;;;;;;5033311;28;20030;-61
2021/07/24 02:59:38;;;;;;;6.05;4.40;;;21.60;65.40;;;;;;5033502;28;20091;-61
2021/07/24 03:02:04;;;;;;;6.63;4.68;;;21.60;65.70;;;;;;5033353;28;20052;-61
2021/07/24 03:04:30;;;;;;;7.22;4.55;;;21.60;65.60;;;;;;5033849;28;20022;-61
2021/07/24 03:06:55;;;;;;;6.47;4.28;;;21.70;65.80;;;;;;5032172;28;20072;-61
2021/07/24 03:09:21;;;;;;;4.78;4.03;;;21.70;66.00;;;;;;5031618;28;20096;-61
2021/07/24 03:11:46;;;;;;;4.95;4.30;;;21.70;66.00;;;;;;5032914;28;20029;-61
2021/07/24 03:14:12;;;;;;;5.35;4.63;;;21.70;66.10;;;;;;5033419;28;20021;-61
2021/07/24 03:16:38;;;;;;;7.15;4.43;;;21.80;66.40;;;;;;5030845;28;20022;-61
2021/07/24 03:19:03;;;;;;;7.13;5.00;;;21.90;66.50;;;;;;5012122;28;20084;-62
2021/07/24 03:21:29;;;;;;;6.22;4.75;;;21.90;66.70;;;;;;5011825;28;20049;-62
2021/07/24 03:23:55;;;;;;;6.50;4.28;;;22.00;66.60;;;;;;5011990;28;20368;-62
2021/07/24 03:26:21;;;;;;;5.20;4.70;;;22.10;66.70;;;;;;5028938;28;20600;-62
2021/07/24 03:28:47;;;;;;;6.80;4.72;;;22.20;66.70;;;;;;5032835;28;20112;-62
2021/07/24 03:31:12;;;;;;;6.90;5.13;;;22.30;66.80;;;;;;5032761;28;20492;-62
2021/07/24 03:33:38;;;;;;;7.47;4.93;;;22.40;66.90;;;;;;5033614;28;20021;-62
2021/07/24 03:36:04;;;;;;;6.82;4.65;;;22.50;66.70;;;;;;5034095;28;20091;-62
2021/07/24 03:38:31;;;;;;;5.78;4.70;;;22.70;67.00;;;;;;5022506;28;20026;-62
2021/07/24 03:40:56;;;;;;;5.43;4.65;;;22.80;66.90;;;;;;5032729;28;20036;-62
2021/07/24 03:43:22;;;;;;;7.13;4.97;;;23.00;67.00;;;;;;5032675;28;20029;-61
2021/07/24 03:45:48;;;;;;;6.68;4.50;;;23.20;67.10;;;;;;5033167;28;20029;-61
2021/07/24 03:48:14;;;;;;;7.20;4.88;;;23.50;67.10;;;;;;5031742;28;20385;-61
2021/07/24 03:50:42;;;;;;;5.78;4.50;;;23.80;67.00;;;;;;5032594;28;20101;-62
2021/07/24 03:53:07;;;;;;;7.90;4.90;;;24.10;66.40;;;;;;5033550;28;20022;-62
2021/07/24 03:55:34;;;;;;;8.38;5.07;;;24.50;65.80;;;;;;5035710;28;20413;-62
2021/07/24 03:58:01;;;;;;;7.15;4.93;;;25.00;64.60;;;;;;5035654;28;20029;-62
2021/07/24 04:00:29;;;;;;;6.00;4.35;;;25.50;63.60;;;;;;5036851;28;20370;-62
2021/07/24 04:03:00;;;;;;;5.85;4.47;;;26.10;62.30;;;;;;5037187;28;20032;-62
2021/07/24 04:05:26;;;;;;;6.40;4.47;;;26.90;60.80;;;;;;5037123;28;20018;-62
2021/07/24 04:07:52;;;;;;;5.50;4.22;;;27.50;59.20;;;;;;5029689;28;20420;-62
2021/07/24 04:10:17;;;;;;;7.40;4.55;;;28.20;58.10;;;;;;5025867;28;20037;-62
2021/07/24 04:12:43;;;;;;;6.57;4.43;;;28.80;56.70;;;;;;5037038;28;20060;-62
2021/07/24 04:15:09;;;;;;;6.65;4.13;;;29.40;55.70;;;;;;5035905;28;20104;-62
2021/07/24 04:17:35;;;;;;;6.47;4.45;;;30.00;54.70;;;;;;5037066;28;20030;-62
2021/07/24 04:20:02;;;;;;;5.20;3.88;;;30.50;53.80;;;;;;5036761;28;20099;-61
2021/07/24 04:22:28;;;;;;;6.40;4.18;;;31.00;52.80;;;;;;5037128;28;20053;-61
2021/07/24 04:24:54;;;;;;;8.18;4.40;;;31.50;52.00;;;;;;5036272;28;20088;-61
2021/07/24 04:27:19;;;;;;;8.18;4.50;;;32.00;51.40;;;;;;5036144;28;20082;-62
2021/07/24 04:29:45;;;;;;;7.75;4.38;;;32.40;50.60;;;;;;5037022;28;20029;-62
2021/07/24 04:32:11;;;;;;;5.25;4.07;;;32.90;49.70;;;;;;5036155;28;20022;-62
2021/07/24 04:34:36;;;;;;;5.18;4.00;;;33.20;49.10;;;;;;5037026;28;20660;-62
2021/07/24 04:37:02;;;;;;;4.63;3.85;;;33.60;48.60;;;;;;5036060;28;20045;-62
2021/07/24 04:39:28;;;;;;;5.00;4.35;;;33.90;47.90;;;;;;5026571;28;20021;-62
2021/07/24 04:41:53;;;;;;;6.53;4.50;;;34.30;47.40;;;;;;5036773;28;20363;-62
2021/07/24 04:44:19;;;;;;;5.68;4.43;;;34.60;47.00;;;;;;5036466;28;20033;-62
2021/07/24 04:46:44;;;;;;;5.50;4.50;;;34.90;46.50;;;;;;5036086;28;20040;-62
2021/07/24 04:49:10;;;;;;;5.22;4.13;;;35.10;46.10;;;;;;5036317;28;20377;-62
2021/07/24 04:51:36;;;;;;;4.93;4.20;;;35.30;45.50;;;;;;5036196;28;20037;-62
2021/07/24 04:54:06;;;;;;;8.70;4.88;;;35.50;45.20;;;;;;5035547;28;20021;-62
2021/07/24 04:56:32;;;;;;;6.13;4.20;;;35.60;44.80;;;;;;5036310;28;20428;-62
2021/07/24 04:59:01;;;;;;;4.85;4.20;;;35.80;44.80;;;;;;5036018;28;20131;-62
2021/07/24 05:01:27;;;;;;;6.07;4.47;;;35.90;44.70;;;;;;5036444;28;20037;-62
2021/07/24 05:03:53;;;;;;;4.50;4.00;;;36.00;44.50;;;;;;5035202;28;20113;-62
2021/07/24 05:06:19;;;;;;;5.10;4.60;;;36.20;44.40;;;;;;5034668;28;20061;-62
2021/07/24 05:08:44;;;;;;;5.53;4.45;;;36.40;44.30;;;;;;5034460;28;20124;-62
2021/07/24 05:11:10;;;;;;;4.65;4.13;;;36.60;44.00;;;;;;5033624;28;20116;-62
2021/07/24 05:13:35;;;;;;;5.93;4.32;;;36.70;43.80;;;;;;5035726;28;20428;-62
2021/07/24 05:16:01;;;;;;;5.95;4.65;;;36.80;43.70;;;;;;5036237;28;20021;-62
2021/07/24 05:18:27;;;;;;;4.88;4.25;;;36.90;43.60;;;;;;5035029;28;20049;-62
2021/07/24 05:20:52;;;;;;;5.32;4.15;;;37.10;43.40;;;;;;5035864;28;20160;-62
2021/07/24 05:23:18;;;;;;;4.20;3.67;;;37.10;43.30;;;;;;5036125;28;20600;-62
2021/07/24 05:25:43;;;;;;;4.97;4.03;;;37.20;43.10;;;;;;5034981;28;20096;-62
2021/07/24 05:28:09;;;;;;;5.43;4.05;;;37.30;43.00;;;;;;5035121;28;20112;-62
2021/07/24 05:30:35;;;;;;;4.82;4.35;;;37.30;42.50;;;;;;5036498;28;20025;-62
2021/07/24 05:33:01;;;;;;;5.40;4.05;;;37.10;41.90;;;;;;5035813;28;20024;-62
2021/07/24 05:35:27;;;;;;;5.22;4.50;;;36.60;41.90;;;;;;5035650;28;20108;-62
2021/07/24 05:37:53;;;;;;;5.82;4.30;;;36.00;42.60;;;;;;5035349;28;20032;-62
2021/07/24 05:40:18;;;;;;;5.68;4.40;;;35.20;43.30;;;;;;5030253;28;20484;-62
2021/07/24 05:42:44;;;;;;;5.85;4.90;;;34.50;44.10;;;;;;5035208;28;20029;-62
2021/07/24 05:45:10;;;;;;;5.97;5.32;;;33.70;44.80;;;;;;5036376;28;20125;-62
2021/07/24 05:47:36;;;;;;;5.68;4.80;;;33.00;45.50;;;;;;5036972;28;20116;-62
2021/07/24 05:50:03;;;;;;;5.80;4.93;;;32.30;46.10;;;;;;5036821;28;20049;-62
2021/07/24 05:52:30;;;;;;;5.68;4.93;;;31.80;47.00;;;;;;5036249;28;20045;-62
2021/07/24 05:54:55;;;;;;;6.15;5.05;;;31.30;47.50;;;;;;5036308;28;20480;-62
2021/07/24 05:57:21;;;;;;;5.80;4.80;;;30.90;48.10;;;;;;5036112;28;20021;-62
2021/07/24 05:59:47;;;;;;;7.38;5.38;;;30.50;48.50;;;;;;5035328;28;20025;-62
2021/07/24 06:02:13;;;;;;;6.97;5.38;;;30.20;48.90;;;;;;5034584;28;20183;-62
2021/07/24 06:04:39;;;;;;;6.30;5.70;;;29.90;49.50;;;;;;5035320;28;20033;-62
2021/07/24 06:07:05;;;;;;;6.30;4.90;;;29.70;49.80;;;;;;5032936;28;20449;-62
2021/07/24 06:09:31;;;;;;;8.05;6.00;;;29.50;50.20;;;;;;5033095;28;20041;-62
2021/07/24 06:11:57;;;;;;;5.88;5.25;;;29.40;50.80;;;;;;5034899;28;20092;-62
2021/07/24 06:14:24;;;;;;;6.32;5.32;;;29.20;50.80;;;;;;5034632;28;20091;-62
2021/07/24 06:16:52;;;;;;;5.43;4.88;;;29.00;51.30;;;;;;5035973;28;20032;-62
2021/07/24 06:19:19;;;;;;;6.70;5.93;;;28.90;51.30;;;;;;5035959;28;20539;-63
2021/07/24 06:21:45;;;;;;;7.20;5.65;;;28.80;51.60;;;;;;5036420;28;20076;-62
2021/07/24 06:24:11;;;;;;;7.00;5.90;;;28.70;51.70;;;;;;5036968;28;20032;-62
2021/07/24 06:26:40;;;;;;;7.75;5.60;;;28.60;52.00;;;;;;5035556;28;20041;-62
2021/07/24 06:29:06;;;;;;;6.68;5.25;;;28.50;52.40;;;;;;5035231;28;20051;-62
2021/07/24 06:31:32;;;;;;;6.30;5.50;;;28.40;52.60;;;;;;5036417;28;20030;-62
2021/07/24 06:34:00;;;;;;;7.05;5.53;;;28.30;52.70;;;;;;5035825;28;20534;-62
2021/07/24 06:36:26;;;;;;;8.95;5.85;;;28.20;52.90;;;;;;5036383;28;20030;-62
2021/07/24 06:38:52;;;;;;;8.93;5.95;;;28.10;53.30;;;;;;5034089;28;20465;-62
2021/07/24 06:41:17;;;;;;;8.55;5.80;;;28.10;53.40;;;;;;5031181;28;20114;-62
2021/07/24 06:43:43;;;;;;;6.30;5.68;;;28.00;53.30;;;;;;5035503;28;20030;-62
2021/07/24 06:46:10;;;;;;;8.68;5.82;;;28.00;53.50;;;;;;5036199;28;20040;-62
2021/07/24 06:48:36;;;;;;;7.65;6.03;;;27.90;53.90;;;;;;5035514;28;20075;-62
2021/07/24 06:51:02;;;;;;;6.47;5.72;;;27.90;54.00;;;;;;5033691;28;20026;-62
2021/07/24 06:53:27;;;;;;;9.73;5.82;;;27.90;54.10;;;;;;5036253;28;20057;-62
2021/07/24 06:55:56;;;;;;;7.13;5.93;;;27.90;54.40;;;;;;5034687;28;20033;-62
2021/07/24 06:58:22;;;;;;;8.38;6.03;;;27.80;54.40;;;;;;5034909;28;20388;-62
2021/07/24 07:00:48;;;;;;;7.38;6.10;;;27.70;54.60;;;;;;5040725;28;20132;-62
2021/07/24 07:03:13;;;;;;;7.40;6.03;;;27.70;54.90;;;;;;5054472;28;20021;-62
2021/07/24 07:05:39;;;;;;;6.80;5.75;;;27.70;54.90;;;;;;5054516;28;20025;-62
2021/07/24 07:08:05;;;;;;;6.97;6.07;;;27.70;55.50;;;;;;5022763;28;20525;-62
2021/07/24 07:10:30;;;;;;;6.68;5.97;;;27.70;55.20;;;;;;5025835;28;20030;-62
2021/07/24 07:12:56;;;;;;;7.50;6.30;;;27.70;55.30;;;;;;5034942;28;21419;-62
2021/07/24 07:15:24;;;;;;;7.07;5.97;;;27.60;55.50;;;;;;5035389;28;20029;-62
2021/07/24 07:17:51;;;;;;;7.28;6.00;;;27.60;55.40;;;;;;5035643;28;20028;-62
2021/07/24 07:20:17;;;;;;;7.07;6.32;;;27.60;55.70;;;;;;5035285;28;20033;-62
2021/07/24 07:22:43;;;;;;;6.68;5.97;;;27.60;55.50;;;;;;5035063;28;20569;-62
2021/07/24 07:25:10;;;;;;;6.97;6.28;;;27.60;55.70;;;;;;5035533;28;20472;-62
2021/07/24 07:27:40;;;;;;;7.60;5.88;;;27.60;55.90;;;;;;5035811;28;20085;-62
2021/07/24 07:30:07;;;;;;;6.43;5.82;;;27.60;56.00;;;;;;5034211;28;20091;-62
2021/07/24 07:32:32;;;;;;;6.70;5.97;;;27.50;55.90;;;;;;5034541;28;20551;-62
2021/07/24 07:34:58;;;;;;;8.60;5.75;;;27.60;56.00;;;;;;5034110;28;20034;-62
2021/07/24 07:37:24;;;;;;;7.32;5.55;;;27.60;55.80;;;;;;5035213;28;20060;-62
2021/07/24 07:39:49;;;;;;;9.15;6.50;;;27.50;55.80;;;;;;5031468;28;20025;-62
2021/07/24 07:42:15;;;;;;;6.18;5.18;;;27.60;55.80;;;;;;5035551;28;20056;-62
2021/07/24 07:44:41;;;;;;;6.43;5.22;;;27.50;55.70;;;;;;5034500;28;20109;-62
2021/07/24 07:47:07;;;;;;;7.28;5.75;;;27.50;55.80;;;;;;5027171;28;20034;-62
2021/07/24 07:49:32;;;;;;;7.05;6.18;;;27.50;55.70;;;;;;5034346;28;20040;-62
2021/07/24 07:51:58;;;;;;;8.07;5.72;;;27.60;55.40;;;;;;5035499;28;20034;-62
2021/07/24 07:54:23;;;;;;;7.32;5.78;;;27.50;55.70;;;;;;5031037;28;20118;-62
2021/07/24 07:56:49;;;;;;;10.68;6.13;;;27.50;55.40;;;;;;5034689;28;20384;-62
2021/07/24 07:59:15;;;;;;;6.93;5.68;;;27.50;55.40;;;;;;5051539;28;20469;-62
2021/07/24 08:01:41;;;;;;;7.57;5.97;;;27.50;55.40;;;;;;5034959;28;20060;-62
2021/07/24 08:04:06;;;;;;;9.25;6.18;;;27.50;55.40;;;;;;5036604;28;20030;-62
2021/07/24 08:06:32;;;;;;;7.03;5.88;;;27.60;55.60;;;;;;5040733;28;20108;-62
2021/07/24 08:08:57;;;;;;;7.07;5.40;;;27.60;56.00;;;;;;5023620;28;20041;-62
2021/07/24 08:11:24;;;;;;;7.57;5.97;;;27.60;56.20;;;;;;5037200;28;20033;-62
2021/07/24 08:13:50;;;;;;;9.20;5.85;;;27.60;55.90;;;;;;5047856;28;20449;-62
2021/07/24 08:16:16;;;;;;;6.63;5.47;;;27.60;56.10;;;;;;5029592;28;20026;-62
2021/07/24 08:18:43;;;;;;;6.95;6.25;;;27.60;55.90;;;;;;5027070;28;20078;-62
2021/07/24 08:21:08;;;;;;;6.53;5.80;;;27.60;55.80;;;;;;5031242;28;20104;-63
2021/07/24 08:23:34;;;;;;;8.25;5.68;;;27.60;55.60;;;;;;5029363;28;20053;-62
2021/07/24 08:26:00;;;;;;;7.32;5.22;;;27.50;55.60;;;;;;5027651;28;20029;-62
2021/07/24 08:28:26;;;;;;;7.55;6.10;;;27.50;55.60;;;;;;5024993;28;20025;-62
2021/07/24 08:30:52;;;;;;;6.90;5.40;;;27.50;55.40;;;;;;5029397;28;20037;-62
2021/07/24 08:33:18;;;;;;;6.10;5.50;;;27.50;55.50;;;;;;5037781;28;20049;-62
2021/07/24 08:35:44;;;;;;;6.65;5.72;;;27.50;55.40;;;;;;5034211;28;20025;-62
2021/07/24 08:38:09;;;;;;;7.50;6.03;;;27.40;55.30;;;;;;5030080;28;20056;-62
2021/07/24 08:40:36;;;;;;;8.82;5.78;;;27.40;55.20;;;;;;5025774;28;20034;-62
2021/07/24 08:43:06;;;;;;;8.07;5.10;;;27.40;55.30;;;;;;5051963;28;20025;-62
2021/07/24 08:45:33;;;;;;;6.82;5.45;;;27.40;55.10;;;;;;5042921;28;20009;-62
2021/07/24 08:48:04;;;;;;;6.97;5.55;;;27.40;55.10;;;;;;5029391;28;20034;-62
2021/07/24 08:50:31;;;;;;;7.47;5.47;;;27.30;55.10;;;;;;5030815;28;20029;-62
2021/07/24 08:53:04;;;;;;;8.63;6.00;;;27.30;54.90;;;;;;5034175;28;20056;-62
2021/07/24 08:55:30;;;;;;;7.95;5.88;;;27.30;55.10;;;;;;5035991;28;20018;-62
2021/07/24 08:57:58;;;;;;;6.65;5.60;;;27.20;54.90;;;;;;5035546;28;20017;-62
2021/07/24 09:00:26;;;;;;;7.68;5.13;;;27.20;54.80;;;;;;5033945;28;20025;-62
2021/07/24 09:03:00;;;;;;;6.00;5.35;;;27.20;54.90;;;;;;5030950;28;20021;-62
2021/07/24 09:05:28;;;;;;;7.93;5.75;;;27.10;54.70;;;;;;5029209;28;20045;-62
2021/07/24 09:07:54;;;;;;;6.70;5.10;;;27.10;54.50;;;;;;5041847;28;20040;-62
2021/07/24 09:10:20;;;;;;;7.15;5.43;;;27.10;54.50;;;;;;5036203;28;20146;-62
2021/07/24 09:12:48;;;;;;;6.60;5.30;;;27.10;54.50;;;;;;5036154;28;20097;-62
2021/07/24 09:15:18;;;;;;;9.68;5.80;;;27.10;54.40;;;;;;5040581;28;20028;-62
2021/07/24 09:17:45;;;;;;;6.97;5.80;;;27.00;54.40;;;;;;5028349;28;20059;-62
2021/07/24 09:20:12;;;;;;;7.78;5.50;;;27.00;54.40;;;;;;5040059;28;20277;-62
2021/07/24 09:22:39;;;;;;;6.25;5.47;;;27.00;54.60;;;;;;5036600;28;20167;-62
2021/07/24 09:25:12;;;;;;;6.07;5.00;;;27.00;54.60;;;;;;5039317;28;20037;-62
2021/07/24 09:27:40;;;;;;;7.35;5.13;;;27.00;54.70;;;;;;5050223;28;20030;-62
2021/07/24 09:30:07;;;;;;;6.60;5.38;;;26.90;54.70;;;;;;5033921;28;20375;-61
2021/07/24 09:32:33;;;;;;;6.03;5.20;;;26.90;54.70;;;;;;5045959;28;20022;-61
2021/07/24 09:34:59;;;;;;;7.50;5.18;;;26.90;54.60;;;;;;5033262;28;20025;-62
2021/07/24 09:37:27;;;;;;;7.07;5.35;;;26.90;54.70;;;;;;5034768;28;20056;-62
2021/07/24 09:39:58;;;;;;;7.53;5.45;;;26.90;54.80;;;;;;5032427;28;20041;-62
2021/07/24 09:42:33;;;;;;;8.07;5.22;;;26.90;55.00;;;;;;5033871;28;20044;-62
2021/07/24 09:45:06;;;;;;;7.20;5.40;;;26.90;54.90;;;;;;5045264;28;20378;-62
2021/07/24 09:47:32;;;;;;;7.57;5.60;;;26.80;54.70;;;;;;5030924;28;20096;-62
2021/07/24 09:50:17;;;;;;;6.78;5.13;;;26.80;54.30;;;;;;5028627;28;20076;-62
2021/07/24 09:52:47;;;;;;;7.15;5.20;;;26.80;54.40;;;;;;5021336;28;20025;-62
2021/07/24 09:55:24;;;;;;;6.65;5.22;;;26.80;54.40;;;;;;5037695;28;20022;-62
2021/07/24 09:57:58;;;;;;;6.82;5.18;;;26.80;54.30;;;;;;5036669;28;20386;-62
2021/07/24 10:00:32;;;;;;;7.97;5.28;;;26.80;54.20;;;;;;5036840;28;20084;-62
2021/07/24 10:03:05;;;;;;;5.97;5.10;;;26.80;54.10;;;;;;5037125;28;20040;-62
2021/07/24 10:05:33;;;;;;;7.05;4.80;;;26.80;53.90;;;;;;5037779;28;20033;-62
2021/07/24 10:08:12;;;;;;;5.60;4.90;;;26.80;53.80;;;;;;5036695;28;20504;-62
2021/07/24 10:10:41;;;;;;;6.13;4.85;;;26.80;54.10;;;;;;5036103;28;20025;-62
2021/07/24 10:13:11;;;;;;;5.40;4.75;;;26.80;53.90;;;;;;5037639;28;20036;-62
2021/07/24 10:15:39;;;;;;;6.13;4.70;;;26.80;53.80;;;;;;5036872;28;20037;-62
2021/07/24 10:18:07;;;;;;;6.07;4.55;;;26.70;54.00;;;;;;5037553;28;20049;-62
2021/07/24 10:20:44;;;;;;;5.95;4.80;;;26.70;53.70;;;;;;5037175;28;20092;-62
2021/07/24 10:23:11;;;;;;;6.93;4.78;;;26.80;53.50;;;;;;5037501;28;20424;-62
2021/07/24 10:26:00;;;;;;;5.43;4.90;;;26.70;53.30;;;;;;5037198;28;20468;-62
2021/07/24 10:29:03;;;;;;;6.28;4.75;;;26.80;53.40;;;;;;5045928;28;20152;-62
2021/07/24 10:31:36;;;;;;;6.90;5.55;;;26.80;53.50;;;;;;5036910;28;20033;-62
2021/07/24 10:34:04;;;;;;;6.45;4.72;;;26.70;53.40;;;;;;5037064;28;20017;-62
2021/07/24 10:36:56;;;;;;;5.65;4.60;;;26.70;53.30;;;;;;5027905;28;20026;-62
2021/07/24 10:39:22;;;;;;;9.18;5.53;;;26.70;52.90;;;;;;5021631;28;20401;-62
2021/07/24 10:41:52;;;;;;;5.00;4.50;;;26.80;53.40;;;;;;5017106;28;20065;-62
2021/07/24 10:44:24;;;;;;;7.47;5.43;;;26.80;53.40;;;;;;5017134;28;20076;-62
2021/07/24 10:46:49;;;;;;;7.75;6.00;;;26.80;53.30;;;;;;5031563;28;20108;-62
2021/07/24 10:49:33;;;;;;;8.35;5.45;;;26.70;53.30;;;;;;5046340;28;20049;-62
2021/07/24 10:52:07;;;;;;;6.40;5.13;;;26.80;53.60;;;;;;5016586;28;20087;-62
2021/07/24 10:54:51;;;;;;;8.35;5.07;;;26.80;53.30;;;;;;5026725;28;20021;-62
2021/07/24 10:57:45;;;;;;;6.55;5.40;;;26.80;53.60;;;;;;5030977;28;20088;-62
2021/07/24 11:00:19;;;;;;;6.72;4.97;;;26.80;53.30;;;;;;5015386;28;20072;-62
2021/07/24 11:02:46;;;;;;;6.85;5.00;;;26.80;53.70;;;;;;5024728;28;20551;-62
2021/07/24 11:05:26;;;;;;;8.27;5.43;;;26.80;53.70;;;;;;5034535;28;20481;-62
2021/07/24 11:07:52;;;;;;;8.30;5.20;;;26.80;54.00;;;;;;5019324;28;20040;-62
2021/07/24 11:10:19;;;;;;;6.20;5.10;;;26.80;54.10;;;;;;5022527;28;20376;-62
2021/07/24 11:12:46;;;;;;;6.07;4.95;;;26.80;54.10;;;;;;5035578;28;20025;-62
2021/07/24 11:15:20;;;;;;;6.78;5.28;;;26.90;54.30;;;;;;5034082;28;20477;-62
2021/07/24 11:18:20;;;;;;;6.25;4.95;;;26.90;54.40;;;;;;5034674;28;20022;-62
2021/07/24 11:20:46;;;;;;;5.70;5.07;;;26.80;54.00;;;;;;5018307;28;20038;-62
2021/07/24 11:23:12;;;;;;;5.80;4.88;;;26.80;54.10;;;;;;5021993;28;20025;-62
2021/07/24 11:25:39;;;;;;;5.80;5.20;;;26.90;54.20;;;;;;5034175;28;20052;-62
2021/07/24 11:28:05;;;;;;;6.00;5.30;;;26.80;54.50;;;;;;5034781;28;20056;-62
2021/07/24 11:30:31;;;;;;;5.80;4.32;;;26.80;54.70;;;;;;5026033;28;20037;-62
2021/07/24 11:33:01;;;;;;;6.97;5.07;;;26.80;54.60;;;;;;5015894;28;20022;-62
2021/07/24 11:35:33;;;;;;;6.72;5.35;;;26.80;54.30;;;;;;5016005;28;20033;-62
2021/07/24 11:38:00;;;;;;;7.40;4.78;;;26.80;54.50;;;;;;5015823;28;20477;-62
2021/07/24 11:40:31;;;;;;;6.25;4.45;;;26.80;54.40;;;;;;5030965;28;20029;-62
2021/07/24 11:43:07;;;;;;;8.80;5.07;;;26.80;54.00;;;;;;5035085;28;20033;-62
2021/07/24 11:45:36;;;;;;;5.32;4.43;;;26.80;53.90;;;;;;5033629;28;20117;-62
2021/07/24 11:48:28;;;;;;;6.13;4.38;;;26.70;53.30;;;;;;5035408;28;20036;-62
2021/07/24 11:51:10;;;;;;;5.63;4.63;;;26.70;53.10;;;;;;5034920;28;20044;-62
2021/07/24 11:53:40;;;;;;;5.43;3.95;;;26.70;52.80;;;;;;5035169;28;20021;-62
2021/07/24 11:56:11;;;;;;;8.07;4.60;;;26.70;52.50;;;;;;5033783;28;20026;-62
2021/07/24 11:58:39;;;;;;;4.97;4.20;;;26.60;52.80;;;;;;5035319;28;20393;-62
2021/07/24 12:01:19;;;;;;;5.57;4.50;;;26.70;52.60;;;;;;5034260;28;20040;-62
2021/07/24 12:03:45;;;;;;;5.68;4.60;;;26.60;53.00;;;;;;5034125;28;20037;-62
2021/07/24 12:06:12;;;;;;;6.40;5.28;;;26.70;52.80;;;;;;5034075;28;20544;-62
2021/07/24 12:08:41;;;;;;;7.05;5.20;;;26.60;52.70;;;;;;5034623;28;20061;-62
2021/07/24 12:11:16;;;;;;;5.30;4.70;;;26.70;52.90;;;;;;5034456;28;20029;-62
2021/07/24 12:13:44;;;;;;;6.80;4.97;;;26.70;53.10;;;;;;5035186;28;20018;-62
2021/07/24 12:16:10;;;;;;;6.60;4.47;;;26.70;53.10;;;;;;5037400;28;20022;-62
2021/07/24 12:18:37;;;;;;;5.53;4.55;;;26.70;52.40;;;;;;5038998;28;20028;-62
2021/07/24 12:21:07;;;;;;;5.10;4.25;;;26.70;52.40;;;;;;5038974;28;20046;-62
2021/07/24 12:23:34;;;;;;;5.93;3.63;;;26.70;52.00;;;;;;5039423;28;20029;-62
2021/07/24 12:26:14;;;;;;;5.50;4.10;;;26.70;52.00;;;;;;5037658;28;20042;-62
2021/07/24 12:28:42;;;;;;;6.80;4.22;;;26.70;51.90;;;;;;5036388;28;20115;-62
2021/07/24 12:31:28;;;;;;;4.93;3.90;;;26.70;51.80;;;;;;5022508;28;20037;-62
2021/07/24 12:33:58;;;;;;;5.10;4.03;;;26.70;52.10;;;;;;5037451;28;20021;-62
2021/07/24 12:36:25;;;;;;;6.72;4.70;;;26.70;51.90;;;;;;5036285;28;20481;-62
2021/07/24 12:38:52;;;;;;;5.90;5.25;;;26.70;52.30;;;;;;5036289;28;20109;-62
2021/07/24 12:41:32;;;;;;;6.68;5.65;;;26.70;52.30;;;;;;5031882;28;20033;-62
2021/07/24 12:44:09;;;;;;;7.90;5.07;;;26.80;52.70;;;;;;5035687;28;20034;-62
2021/07/24 12:46:37;;;;;;;6.15;5.03;;;26.70;53.00;;;;;;5047449;28;20029;-62
2021/07/24 12:49:04;;;;;;;5.32;4.82;;;26.70;53.20;;;;;;5052589;28;20071;-62
2021/07/24 12:51:41;;;;;;;5.35;4.85;;;26.70;54.00;;;;;;5037956;28;20033;-62
2021/07/24 12:54:16;;;;;;;6.35;5.10;;;26.70;53.40;;;;;;5047398;28;20056;-62
2021/07/24 12:56:49;;;;;;;7.00;4.95;;;26.70;53.40;;;;;;5053811;28;20432;-62